createdAt,value
2022-09-02T00:01:28.602Z,16.34
2022-09-02T00:06:33.733Z,16.32
2022-09-02T00:11:37.275Z,16.27
2022-09-02T00:16:51.498Z,16.21
2022-09-02T00:21:54.815Z,16.13
2022-09-02T00:26:57.052Z,16.09
2022-09-02T00:32:01.488Z,16.08
2022-09-02T00:37:09.249Z,16.01
2022-09-02T00:42:11.498Z,15.97
2022-09-02T00:47:15.406Z,15.92
2022-09-02T00:52:26.311Z,15.89
2022-09-02T00:57:32.595Z,15.84
2022-09-02T01:02:34.698Z,15.81
2022-09-02T01:07:57.060Z,15.74
2022-09-02T01:13:10.951Z,15.65
2022-09-02T01:18:24.037Z,15.61
2022-09-02T01:23:34.670Z,15.53
2022-09-02T01:28:37.514Z,15.51
2022-09-02T01:33:39.318Z,15.45
2022-09-02T01:38:41.084Z,15.38
2022-09-02T01:43:45.770Z,15.34
2022-09-02T01:48:48.781Z,15.30
2022-09-02T01:53:50.887Z,15.24
2022-09-02T01:58:52.800Z,15.16
2022-09-02T02:03:55.132Z,15.13
2022-09-02T02:09:02.377Z,15.09
2022-09-02T02:14:08.010Z,15.03
2022-09-02T02:19:12.774Z,14.97
2022-09-02T02:24:15.122Z,14.92
2022-09-02T02:29:18.171Z,14.88
2022-09-02T02:34:22.333Z,14.82
2022-09-02T02:39:29.742Z,14.76
2022-09-02T02:44:35.420Z,14.76
2022-09-02T02:49:39.426Z,14.72
2022-09-02T02:54:46.083Z,14.68
2022-09-02T02:59:48.869Z,14.62
2022-09-02T03:04:52.437Z,14.58
2022-09-02T03:09:54.258Z,14.53
2022-09-02T03:14:56.074Z,14.47
2022-09-02T03:20:02.658Z,14.42
2022-09-02T03:25:10.301Z,14.39
2022-09-02T03:30:16.046Z,14.33
2022-09-02T03:35:23.646Z,14.28
2022-09-02T03:40:28.584Z,14.27
2022-09-02T03:45:32.950Z,14.22
2022-09-02T03:50:42.160Z,14.21
2022-09-02T03:55:52.361Z,14.18
2022-09-02T04:00:55.980Z,14.15
2022-09-02T04:05:59.707Z,14.13
2022-09-02T04:11:10.307Z,14.09
2022-09-02T04:16:18.195Z,14.04
2022-09-02T04:21:20.165Z,13.98
2022-09-02T04:26:23.091Z,13.94
2022-09-02T04:31:30.982Z,13.89
2022-09-02T04:36:34.833Z,13.86
2022-09-02T04:41:43.242Z,14.20
2022-09-02T04:46:51.062Z,14.43
2022-09-02T04:51:57.026Z,14.15
2022-09-02T04:57:00.474Z,14.04
2022-09-02T05:02:07.230Z,13.98
2022-09-02T05:07:11.967Z,13.98
2022-09-02T05:12:21.631Z,13.98
2022-09-02T05:17:31.896Z,14.01
2022-09-02T05:22:39.755Z,14.11
2022-09-02T05:27:43.100Z,14.17
2022-09-02T05:32:47.308Z,14.21
2022-09-02T05:37:50.409Z,14.25
2022-09-02T05:42:54.650Z,14.29
2022-09-02T05:47:56.472Z,14.35
2022-09-02T05:53:01.758Z,14.42
2022-09-02T05:58:10.352Z,14.47
2022-09-02T06:03:18.456Z,14.52
2022-09-02T06:08:20.514Z,14.58
2022-09-02T06:13:22.824Z,14.66
2022-09-02T06:18:28.949Z,14.73
2022-09-02T06:23:35.758Z,14.82
2022-09-02T06:28:42.585Z,14.89
2022-09-02T06:33:46.459Z,15.01
2022-09-02T06:38:52.889Z,15.12
2022-09-02T06:44:02.747Z,15.20
2022-09-02T06:49:08.383Z,15.34
2022-09-02T06:54:17.712Z,15.48
2022-09-02T06:59:24.193Z,15.58
2022-09-02T07:04:55.673Z,15.71
2022-09-02T07:10:04.997Z,15.83
2022-09-02T07:15:10.564Z,15.95
2022-09-02T07:20:17.957Z,16.06
2022-09-02T07:25:27.540Z,16.19
2022-09-02T07:30:32.120Z,16.30
2022-09-02T07:35:44.552Z,16.38
2022-09-02T07:40:50.850Z,16.49
2022-09-02T07:46:04.215Z,16.65
2022-09-02T07:51:09.564Z,16.80
2022-09-02T07:56:14.958Z,16.94
2022-09-02T08:01:23.643Z,17.07
2022-09-02T08:06:34.452Z,17.21
2022-09-02T08:11:40.379Z,17.34
2022-09-02T08:16:46.135Z,17.46
2022-09-02T08:21:51.058Z,17.63
2022-09-02T08:26:53.282Z,17.75
2022-09-02T08:31:55.293Z,17.89
2022-09-02T08:37:00.353Z,18.11
2022-09-02T08:42:15.619Z,18.23
2022-09-02T08:47:24.782Z,18.40
2022-09-02T08:52:36.607Z,18.64
2022-09-02T08:57:44.347Z,18.77
2022-09-02T09:03:15.261Z,18.93
2022-09-02T09:08:41.904Z,19.11
2022-09-02T09:14:02.919Z,19.25
2022-09-02T09:19:26.796Z,19.50
2022-09-02T09:24:32.104Z,19.63
2022-09-02T09:29:36.313Z,19.77
2022-09-02T09:34:54.112Z,19.91
2022-09-02T09:40:00.877Z,20.10
2022-09-02T09:45:38.530Z,20.29
2022-09-02T09:50:46.117Z,20.45
2022-09-02T09:56:22.605Z,20.61
2022-09-02T10:01:33.003Z,20.76
2022-09-02T10:06:43.585Z,20.85
2022-09-02T10:12:05.349Z,21.04
2022-09-02T10:17:16.509Z,21.19
2022-09-02T10:22:39.185Z,21.32
2022-09-02T10:28:09.664Z,21.36
2022-09-02T10:33:22.671Z,21.43
2022-09-02T10:38:34.289Z,21.59
2022-09-02T10:43:42.149Z,21.75
2022-09-02T10:49:07.327Z,21.92
2022-09-02T10:54:23.430Z,22.02
2022-09-02T10:59:40.289Z,22.13
2022-09-02T11:04:50.607Z,22.25
2022-09-02T11:10:11.113Z,22.44
2022-09-02T11:15:19.533Z,22.66
2022-09-02T11:20:45.877Z,22.82
2022-09-02T11:26:00.433Z,22.86
2022-09-02T11:31:28.205Z,23.21
2022-09-02T11:36:38.171Z,23.57
2022-09-02T11:42:05.126Z,23.81
2022-09-02T11:47:21.161Z,24.06
2022-09-02T11:52:27.335Z,24.51
2022-09-02T11:57:35.016Z,24.55
2022-09-02T12:02:45.682Z,24.47
2022-09-02T12:07:50.709Z,25.08
2022-09-02T12:13:00.421Z,25.17
2022-09-02T12:18:07.469Z,25.10
2022-09-02T12:23:11.373Z,25.81
2022-09-02T12:28:27.289Z,26.21
2022-09-02T12:33:36.446Z,25.53
2022-09-02T12:38:41.063Z,26.22
2022-09-02T12:44:05.520Z,26.59
2022-09-02T12:49:26.458Z,27.02
2022-09-02T12:54:38.747Z,27.61
2022-09-02T12:59:41.753Z,27.53
2022-09-02T13:05:17.947Z,27.98
2022-09-02T13:10:44.979Z,28.33
2022-09-02T13:16:05.575Z,28.55
2022-09-02T13:21:22.292Z,29.10
2022-09-02T13:26:50.214Z,29.44
2022-09-02T13:32:05.142Z,29.78
2022-09-02T13:37:32.380Z,30.10
2022-09-02T13:42:37.274Z,30.32
2022-09-02T13:47:48.429Z,30.80
2022-09-02T13:58:38.641Z,31.02
2022-09-02T14:03:44.965Z,31.28
2022-09-02T14:08:46.939Z,31.54
2022-09-02T14:13:50.045Z,31.58
2022-09-02T14:19:15.209Z,31.63
2022-09-02T14:24:26.330Z,31.56
2022-09-02T14:29:32.157Z,31.97
2022-09-02T14:34:37.220Z,32.34
2022-09-02T14:39:54.959Z,32.63
2022-09-02T14:44:59.431Z,32.45
2022-09-02T14:50:04.556Z,32.90
2022-09-02T14:55:08.801Z,32.99
2022-09-02T15:00:14.972Z,33.10
2022-09-02T15:05:19.540Z,33.24
2022-09-02T15:10:21.684Z,33.22
2022-09-02T15:15:24.654Z,33.74
2022-09-02T15:20:29.082Z,34.00
2022-09-02T15:25:34.204Z,34.16
2022-09-02T15:30:40.783Z,34.00
2022-09-02T15:35:47.399Z,33.99
2022-09-02T15:40:49.201Z,33.96
2022-09-02T15:45:53.814Z,34.11
2022-09-02T15:50:58.055Z,34.19
2022-09-02T15:56:04.547Z,34.37
2022-09-02T16:01:09.379Z,34.19
2022-09-02T16:06:13.303Z,33.39
2022-09-02T16:11:15.100Z,31.74
2022-09-02T16:16:20.302Z,30.59
2022-09-02T16:21:25.247Z,29.80
2022-09-02T16:26:34.060Z,29.23
2022-09-02T16:31:41.209Z,28.74
2022-09-02T16:36:48.155Z,28.33
2022-09-02T16:41:55.836Z,27.93
2022-09-02T16:46:57.657Z,27.65
2022-09-02T16:52:01.514Z,27.36
2022-09-02T16:57:04.685Z,27.04
2022-09-02T17:02:06.927Z,26.78
2022-09-02T17:07:09.566Z,26.47
2022-09-02T17:12:12.526Z,26.32
2022-09-02T17:17:17.283Z,26.12
2022-09-02T17:22:20.235Z,25.86
2022-09-02T17:27:21.961Z,25.62
2022-09-02T17:32:26.050Z,25.51
2022-09-02T17:37:30.988Z,25.29
2022-09-02T17:42:33.931Z,25.04
2022-09-02T17:47:40.338Z,24.81
2022-09-02T17:52:45.446Z,24.65
2022-09-02T17:57:51.088Z,24.52
2022-09-02T18:03:18.041Z,24.23
2022-09-02T18:09:02.271Z,24.01
2022-09-02T18:14:16.563Z,23.89
2022-09-02T18:19:27.588Z,23.62
2022-09-02T18:24:37.565Z,23.49
2022-09-02T18:29:56.500Z,23.34
2022-09-02T18:35:32.352Z,23.13
2022-09-02T18:40:54.568Z,22.88
2022-09-02T18:46:01.604Z,22.71
2022-09-02T18:51:24.441Z,22.57
2022-09-02T18:56:31.391Z,22.49
2022-09-02T19:01:42.559Z,22.41
2022-09-02T19:06:44.414Z,22.27
2022-09-02T19:11:51.838Z,22.17
2022-09-02T19:16:58.094Z,22.07
2022-09-02T19:22:04.912Z,21.98
2022-09-02T19:27:09.778Z,21.91
2022-09-02T19:32:15.227Z,21.85
2022-09-02T19:37:17.277Z,21.75
2022-09-02T19:42:24.201Z,21.62
2022-09-02T19:53:00.993Z,21.20
2022-09-02T19:58:05.242Z,21.08
2022-09-02T20:03:11.474Z,20.90
2022-09-02T20:08:16.914Z,20.79
2022-09-02T20:13:21.026Z,20.74
2022-09-02T20:18:28.520Z,20.64
2022-09-02T20:23:32.769Z,20.51
2022-09-02T20:28:45.014Z,20.51
2022-09-02T20:34:03.668Z,20.43
2022-09-02T20:39:14.637Z,20.33
2022-09-02T20:44:19.107Z,20.21
2022-09-02T20:49:55.539Z,20.12
2022-09-02T20:55:22.089Z,20.00
2022-09-02T21:00:30.903Z,19.85
2022-09-02T21:05:37.805Z,19.74
2022-09-02T21:10:45.838Z,19.67
2022-09-02T21:16:00.219Z,19.63
2022-09-02T21:21:31.769Z,19.54
2022-09-02T21:26:48.280Z,19.45
2022-09-02T21:32:01.564Z,19.37
2022-09-02T21:37:04.301Z,19.23
2022-09-02T21:42:19.575Z,19.14
2022-09-02T21:47:27.356Z,19.07
2022-09-02T21:52:49.612Z,19.03
2022-09-02T21:57:57.096Z,18.94
2022-09-02T22:03:19.961Z,18.82
2022-09-02T22:08:33.656Z,18.77
2022-09-02T22:13:41.926Z,18.70
2022-09-02T22:18:54.290Z,18.66
2022-09-02T22:23:56.284Z,18.59
2022-09-02T22:29:03.896Z,18.54
2022-09-02T22:34:09.301Z,18.45
2022-09-02T22:39:16.692Z,18.41
2022-09-02T22:45:01.156Z,18.32
2022-09-02T22:50:24.199Z,18.21
2022-09-02T22:55:33.515Z,18.10
2022-09-02T23:00:40.892Z,18.03
2022-09-02T23:06:08.025Z,17.94
2022-09-02T23:11:47.335Z,17.85
2022-09-02T23:17:05.514Z,17.73
2022-09-02T23:22:22.017Z,17.65
2022-09-02T23:27:53.239Z,17.54
2022-09-02T23:33:03.536Z,17.46
2022-09-02T23:38:28.497Z,17.42
2022-09-02T23:43:33.698Z,17.32
2022-09-02T23:48:52.125Z,17.26
2022-09-02T23:54:10.891Z,17.19
2022-09-02T23:59:34.532Z,17.14
